UTA205 USTR-UNNT
Flight info
| Callsign | UTA205 |
|---|---|
| Flight time | 1h 33m |
| Altitude | 35000 |
| Route | K0828F350 NAPOR T448 RUBOR A300 ML R814 SZ W1 GOLIM |
| Aircraft | B738/M-SDE2E3FGHIRWXY/LB1 |
Departure
| Time | 2026-04-30 04:22 |
|---|---|
| Airport | Roshchino International Airport (USTR) |
Arrival
| Time | 2026-04-30 05:55 |
|---|---|
| Airport | Novosibirsk Tolmachevo Airport (UNNT) |
| Time | Latitude | Longitude | Altitude | Speed | Heading |
|---|---|---|---|---|---|
| 2026-04-30 04:09 | 57.17789 | 65.35252 | 339 ft | 0 kts | 224° |
| 2026-04-30 04:16 | 57.17788 | 65.35251 | 334 ft | 2 kts | 224° |
| 2026-04-30 04:17 | 57.17778 | 65.35221 | 339 ft | 3 kts | 249° |
| 2026-04-30 04:17 | 57.17780 | 65.35167 | 337 ft | 10 kts | 291° |
| 2026-04-30 04:17 | 57.17865 | 65.34997 | 339 ft | 24 kts | 315° |
| 2026-04-30 04:17 | 57.18000 | 65.34743 | 334 ft | 29 kts | 315° |
| 2026-04-30 04:18 | 57.18139 | 65.34486 | 336 ft | 28 kts | 314° |
| 2026-04-30 04:18 | 57.18283 | 65.34220 | 334 ft | 32 kts | 315° |
| 2026-04-30 04:18 | 57.18437 | 65.33934 | 339 ft | 31 kts | 314° |
| 2026-04-30 04:18 | 57.18535 | 65.33753 | 337 ft | 29 kts | 315° |
| 2026-04-30 04:19 | 57.18619 | 65.33523 | 339 ft | 19 kts | 270° |
| 2026-04-30 04:19 | 57.18587 | 65.33304 | 337 ft | 18 kts | 227° |
| 2026-04-30 04:19 | 57.18498 | 65.33130 | 329 ft | 20 kts | 229° |
| 2026-04-30 04:19 | 57.18474 | 65.32872 | 328 ft | 22 kts | 268° |
| 2026-04-30 04:20 | 57.18469 | 65.32579 | 324 ft | 24 kts | 268° |
| 2026-04-30 04:20 | 57.18463 | 65.32269 | 328 ft | 23 kts | 267° |
| 2026-04-30 04:20 | 57.18546 | 65.32053 | 330 ft | 21 kts | 317° |
| 2026-04-30 04:20 | 57.18653 | 65.31870 | 333 ft | 21 kts | 317° |
| 2026-04-30 04:21 | 57.18686 | 65.31684 | 347 ft | 0 kts | 229° |
| 2026-04-30 04:21 | 57.18684 | 65.31678 | 342 ft | 9 kts | 228° |
| 2026-04-30 04:21 | 57.18476 | 65.31258 | 356 ft | 79 kts | 227° |
| 2026-04-30 04:22 | 57.17938 | 65.30181 | 375 ft | 146 kts | 226° |
| 2026-04-30 04:22 | 57.17139 | 65.28562 | 572 ft | 186 kts | 229° |
| 2026-04-30 04:22 | 57.16234 | 65.26676 | 1112 ft | 203 kts | 231° |
| 2026-04-30 04:22 | 57.15219 | 65.24974 | 1709 ft | 192 kts | 210° |
| 2026-04-30 04:23 | 57.13938 | 65.24365 | 2224 ft | 198 kts | 178° |
| 2026-04-30 04:23 | 57.12629 | 65.25173 | 2679 ft | 202 kts | 149° |
| 2026-04-30 04:23 | 57.11679 | 65.27032 | 3198 ft | 208 kts | 123° |
| 2026-04-30 04:23 | 57.11067 | 65.29516 | 3689 ft | 218 kts | 116° |
| 2026-04-30 04:24 | 57.10481 | 65.32110 | 4317 ft | 224 kts | 116° |
| 2026-04-30 04:24 | 57.09922 | 65.34904 | 4658 ft | 247 kts | 107° |
| 2026-04-30 04:24 | 57.09530 | 65.38063 | 5096 ft | 256 kts | 109° |
| 2026-04-30 04:24 | 57.08951 | 65.41190 | 5704 ft | 262 kts | 115° |
| 2026-04-30 04:25 | 57.08186 | 65.44364 | 6195 ft | 279 kts | 120° |
| 2026-04-30 04:25 | 57.07290 | 65.47556 | 6964 ft | 283 kts | 122° |
| 2026-04-30 04:25 | 57.06312 | 65.50715 | 7749 ft | 285 kts | 124° |
| 2026-04-30 04:25 | 57.05283 | 65.53831 | 8637 ft | 284 kts | 126° |
| 2026-04-30 04:26 | 57.04236 | 65.56919 | 9409 ft | 287 kts | 127° |
| 2026-04-30 04:26 | 57.03157 | 65.60056 | 10121 ft | 293 kts | 127° |
| 2026-04-30 04:26 | 57.02106 | 65.63342 | 10593 ft | 311 kts | 116° |
| 2026-04-30 04:26 | 57.01779 | 65.67461 | 10738 ft | 348 kts | 86° |
| 2026-04-30 04:27 | 57.02469 | 65.71907 | 10896 ft | 376 kts | 71° |
| 2026-04-30 04:27 | 57.03498 | 65.76420 | 11377 ft | 388 kts | 69° |
| 2026-04-30 04:27 | 57.04569 | 65.81004 | 12047 ft | 392 kts | 69° |
| 2026-04-30 04:27 | 57.05620 | 65.85642 | 12789 ft | 394 kts | 70° |
| 2026-04-30 04:28 | 57.06646 | 65.90345 | 13469 ft | 399 kts | 71° |
| 2026-04-30 04:28 | 57.07657 | 65.95106 | 14132 ft | 401 kts | 71° |
| 2026-04-30 04:28 | 57.08663 | 65.99916 | 14795 ft | 405 kts | 71° |
| 2026-04-30 04:28 | 57.09673 | 66.04773 | 15431 ft | 408 kts | 71° |
| 2026-04-30 04:29 | 57.10693 | 66.09698 | 15919 ft | 417 kts | 72° |
| 2026-04-30 04:29 | 57.11368 | 66.14869 | 16463 ft | 414 kts | 92° |
| 2026-04-30 04:29 | 57.11174 | 66.20090 | 17102 ft | 408 kts | 103° |
| 2026-04-30 04:29 | 57.10787 | 66.25280 | 17702 ft | 411 kts | 104° |
| 2026-04-30 04:30 | 57.10382 | 66.30510 | 18261 ft | 415 kts | 104° |
| 2026-04-30 04:30 | 57.09977 | 66.35796 | 18832 ft | 418 kts | 103° |
| 2026-04-30 04:30 | 57.09581 | 66.41113 | 19391 ft | 421 kts | 103° |
| 2026-04-30 04:30 | 57.09190 | 66.46472 | 19919 ft | 425 kts | 103° |
| 2026-04-30 04:31 | 57.08799 | 66.51878 | 20431 ft | 428 kts | 103° |
| 2026-04-30 04:31 | 57.08409 | 66.57328 | 20953 ft | 431 kts | 103° |
| 2026-04-30 04:31 | 57.08014 | 66.62808 | 21448 ft | 435 kts | 103° |
| 2026-04-30 04:31 | 57.07607 | 66.68371 | 21738 ft | 443 kts | 103° |
| 2026-04-30 04:32 | 57.07194 | 66.74011 | 22175 ft | 447 kts | 103° |
| 2026-04-30 04:32 | 57.06778 | 66.79672 | 22675 ft | 449 kts | 103° |
| 2026-04-30 04:32 | 57.06357 | 66.85373 | 23119 ft | 451 kts | 103° |
| 2026-04-30 04:32 | 57.05928 | 66.91111 | 23546 ft | 454 kts | 103° |
| 2026-04-30 04:33 | 57.05475 | 66.96865 | 23990 ft | 456 kts | 104° |
| 2026-04-30 04:33 | 57.04988 | 67.02632 | 24392 ft | 458 kts | 104° |
| 2026-04-30 04:33 | 57.04484 | 67.08428 | 24791 ft | 461 kts | 104° |
| 2026-04-30 04:33 | 57.03972 | 67.14247 | 25198 ft | 463 kts | 104° |
| 2026-04-30 04:34 | 57.03457 | 67.20088 | 25605 ft | 464 kts | 104° |
| 2026-04-30 04:34 | 57.02941 | 67.25960 | 25986 ft | 467 kts | 104° |
| 2026-04-30 04:34 | 57.02422 | 67.31855 | 26339 ft | 469 kts | 104° |
| 2026-04-30 04:34 | 57.01900 | 67.37781 | 26682 ft | 471 kts | 104° |
| 2026-04-30 04:35 | 57.01374 | 67.43723 | 27030 ft | 473 kts | 104° |
| 2026-04-30 04:35 | 57.00850 | 67.49619 | 27360 ft | 475 kts | 105° |
| 2026-04-30 04:35 | 57.00313 | 67.55629 | 27588 ft | 480 kts | 105° |
| 2026-04-30 04:35 | 56.99767 | 67.61686 | 27846 ft | 483 kts | 105° |
| 2026-04-30 04:36 | 56.99218 | 67.67769 | 28180 ft | 484 kts | 105° |
| 2026-04-30 04:36 | 56.98665 | 67.73873 | 28477 ft | 486 kts | 105° |
| 2026-04-30 04:36 | 56.98105 | 67.79998 | 28769 ft | 488 kts | 105° |
| 2026-04-30 04:36 | 56.97540 | 67.86135 | 29062 ft | 490 kts | 105° |
| 2026-04-30 04:37 | 56.96970 | 67.92293 | 29353 ft | 491 kts | 105° |
| 2026-04-30 04:37 | 56.96396 | 67.98468 | 29626 ft | 492 kts | 105° |
| 2026-04-30 04:37 | 56.95816 | 68.04664 | 29877 ft | 494 kts | 105° |
| 2026-04-30 04:37 | 56.95233 | 68.10870 | 30153 ft | 495 kts | 105° |
| 2026-04-30 04:38 | 56.94646 | 68.17073 | 30493 ft | 493 kts | 105° |
| 2026-04-30 04:38 | 56.94059 | 68.23256 | 30854 ft | 492 kts | 105° |
| 2026-04-30 04:38 | 56.93470 | 68.29425 | 31199 ft | 491 kts | 105° |
| 2026-04-30 04:38 | 56.92880 | 68.35582 | 31499 ft | 490 kts | 105° |
| 2026-04-30 04:39 | 56.92286 | 68.41725 | 31794 ft | 490 kts | 105° |
| 2026-04-30 04:39 | 56.91688 | 68.47854 | 32112 ft | 489 kts | 105° |
| 2026-04-30 04:39 | 56.91090 | 68.53981 | 32454 ft | 487 kts | 106° |
| 2026-04-30 04:39 | 56.90492 | 68.60073 | 32797 ft | 485 kts | 106° |
| 2026-04-30 04:40 | 56.89892 | 68.66153 | 33064 ft | 485 kts | 106° |
| 2026-04-30 04:40 | 56.89289 | 68.72219 | 33292 ft | 486 kts | 106° |
| 2026-04-30 04:40 | 56.88683 | 68.78309 | 33549 ft | 486 kts | 106° |
| 2026-04-30 04:40 | 56.88082 | 68.84304 | 33792 ft | 485 kts | 106° |
| 2026-04-30 04:41 | 56.87470 | 68.90371 | 34050 ft | 485 kts | 106° |
| 2026-04-30 04:41 | 56.86855 | 68.96422 | 34323 ft | 484 kts | 106° |
| 2026-04-30 04:41 | 56.86240 | 69.02460 | 34614 ft | 482 kts | 106° |
| 2026-04-30 04:41 | 56.85625 | 69.08469 | 34861 ft | 482 kts | 107° |
| 2026-04-30 04:42 | 56.85007 | 69.14480 | 35047 ft | 481 kts | 107° |
| 2026-04-30 04:42 | 56.83761 | 69.26494 | 35107 ft | 481 kts | 107° |
| 2026-04-30 04:43 | 56.82508 | 69.38465 | 35121 ft | 479 kts | 107° |
| 2026-04-30 04:43 | 56.81252 | 69.50360 | 35112 ft | 475 kts | 107° |
| 2026-04-30 04:44 | 56.79991 | 69.62169 | 35121 ft | 474 kts | 107° |
| 2026-04-30 04:44 | 56.78722 | 69.73941 | 35130 ft | 472 kts | 107° |
| 2026-04-30 04:45 | 56.77440 | 69.85720 | 35131 ft | 473 kts | 107° |
| 2026-04-30 04:45 | 56.76149 | 69.97492 | 35126 ft | 473 kts | 107° |
| 2026-04-30 04:46 | 56.74848 | 70.09241 | 35131 ft | 473 kts | 107° |
| 2026-04-30 04:46 | 56.73540 | 70.20947 | 35125 ft | 470 kts | 107° |
| 2026-04-30 04:47 | 56.72175 | 70.32578 | 35129 ft | 469 kts | 108° |
| 2026-04-30 04:47 | 56.70751 | 70.44136 | 35123 ft | 466 kts | 108° |
| 2026-04-30 04:48 | 56.69323 | 70.55624 | 35135 ft | 465 kts | 108° |
| 2026-04-30 04:48 | 56.67906 | 70.67048 | 35124 ft | 461 kts | 108° |
| 2026-04-30 04:49 | 56.66489 | 70.78381 | 35136 ft | 458 kts | 108° |
| 2026-04-30 04:49 | 56.65067 | 70.89664 | 35140 ft | 458 kts | 108° |
| 2026-04-30 04:50 | 56.63634 | 71.00950 | 35141 ft | 458 kts | 108° |
| 2026-04-30 04:50 | 56.62200 | 71.12151 | 35140 ft | 458 kts | 108° |
| 2026-04-30 04:51 | 56.60745 | 71.23440 | 35151 ft | 460 kts | 108° |
| 2026-04-30 04:51 | 56.59275 | 71.34751 | 35137 ft | 461 kts | 108° |
| 2026-04-30 04:52 | 56.57787 | 71.46117 | 35146 ft | 465 kts | 108° |
| 2026-04-30 04:52 | 56.56286 | 71.57514 | 35141 ft | 464 kts | 108° |
| 2026-04-30 04:53 | 56.54771 | 71.68905 | 35156 ft | 467 kts | 108° |
| 2026-04-30 04:53 | 56.53240 | 71.80327 | 35143 ft | 467 kts | 108° |
| 2026-04-30 04:54 | 56.51695 | 71.91756 | 35152 ft | 468 kts | 108° |
| 2026-04-30 04:54 | 56.50136 | 72.03207 | 35141 ft | 467 kts | 108° |
| 2026-04-30 04:55 | 56.48579 | 72.14592 | 35142 ft | 465 kts | 108° |
| 2026-04-30 04:55 | 56.47017 | 72.25908 | 35143 ft | 462 kts | 108° |
| 2026-04-30 04:56 | 56.45463 | 72.37072 | 35150 ft | 461 kts | 108° |
| 2026-04-30 04:56 | 56.43889 | 72.48301 | 35162 ft | 461 kts | 108° |
| 2026-04-30 04:57 | 56.42297 | 72.59568 | 35162 ft | 463 kts | 108° |
| 2026-04-30 04:57 | 56.40698 | 72.70822 | 35153 ft | 463 kts | 108° |
| 2026-04-30 04:58 | 56.39086 | 72.82090 | 35162 ft | 464 kts | 109° |
| 2026-04-30 04:58 | 56.37458 | 72.93368 | 35155 ft | 464 kts | 109° |
| 2026-04-30 04:59 | 56.35824 | 73.04636 | 35154 ft | 465 kts | 109° |
| 2026-04-30 04:59 | 56.34172 | 73.15919 | 35166 ft | 465 kts | 109° |
| 2026-04-30 05:00 | 56.32515 | 73.27201 | 35155 ft | 466 kts | 109° |
| 2026-04-30 05:00 | 56.30840 | 73.38463 | 35165 ft | 466 kts | 109° |
| 2026-04-30 05:01 | 56.29153 | 73.49741 | 35182 ft | 467 kts | 109° |
| 2026-04-30 05:01 | 56.27456 | 73.61019 | 35170 ft | 466 kts | 109° |
| 2026-04-30 05:02 | 56.25756 | 73.72253 | 35175 ft | 465 kts | 109° |
| 2026-04-30 05:02 | 56.24043 | 73.83491 | 35175 ft | 466 kts | 109° |
| 2026-04-30 05:03 | 56.22612 | 73.92817 | 35175 ft | 465 kts | 109° |
| 2026-04-30 05:03 | 56.20735 | 74.03923 | 35175 ft | 464 kts | 112° |
| 2026-04-30 05:04 | 56.18729 | 74.14901 | 35172 ft | 463 kts | 112° |
| 2026-04-30 05:04 | 56.16720 | 74.25874 | 35177 ft | 462 kts | 112° |
| 2026-04-30 05:05 | 56.14730 | 74.36822 | 35169 ft | 460 kts | 112° |
| 2026-04-30 05:05 | 56.12754 | 74.47703 | 35170 ft | 458 kts | 112° |
| 2026-04-30 05:06 | 56.09791 | 74.63919 | 35176 ft | 455 kts | 112° |
| 2026-04-30 05:06 | 56.07809 | 74.74672 | 35175 ft | 454 kts | 112° |
| 2026-04-30 05:07 | 56.05826 | 74.85369 | 35173 ft | 452 kts | 113° |
| 2026-04-30 05:07 | 56.03851 | 74.95959 | 35176 ft | 451 kts | 113° |
| 2026-04-30 05:08 | 56.01862 | 75.06572 | 35169 ft | 450 kts | 113° |
| 2026-04-30 05:08 | 55.99871 | 75.17146 | 35175 ft | 448 kts | 114° |
| 2026-04-30 05:09 | 55.97878 | 75.27660 | 35174 ft | 446 kts | 114° |
| 2026-04-30 05:09 | 55.95879 | 75.38140 | 35175 ft | 446 kts | 114° |
| 2026-04-30 05:10 | 55.93875 | 75.48618 | 35179 ft | 447 kts | 114° |
| 2026-04-30 05:10 | 55.91855 | 75.59083 | 35171 ft | 446 kts | 114° |
| 2026-04-30 05:11 | 55.89828 | 75.69539 | 35179 ft | 447 kts | 114° |
| 2026-04-30 05:11 | 55.87795 | 75.79975 | 35171 ft | 446 kts | 114° |
| 2026-04-30 05:12 | 55.85753 | 75.90401 | 35175 ft | 446 kts | 114° |
| 2026-04-30 05:12 | 55.83720 | 76.00735 | 35174 ft | 445 kts | 115° |
| 2026-04-30 05:13 | 55.81661 | 76.11121 | 35173 ft | 444 kts | 115° |
| 2026-04-30 05:13 | 55.79605 | 76.21458 | 35172 ft | 443 kts | 115° |
| 2026-04-30 05:14 | 55.77549 | 76.31746 | 35171 ft | 441 kts | 115° |
| 2026-04-30 05:14 | 55.75487 | 76.41998 | 35175 ft | 440 kts | 115° |
| 2026-04-30 05:15 | 55.73422 | 76.52211 | 35174 ft | 439 kts | 115° |
| 2026-04-30 05:15 | 55.71356 | 76.62384 | 35199 ft | 437 kts | 115° |
| 2026-04-30 05:16 | 55.69291 | 76.72505 | 35201 ft | 436 kts | 115° |
| 2026-04-30 05:16 | 55.67221 | 76.82589 | 35205 ft | 435 kts | 115° |
| 2026-04-30 05:17 | 55.65145 | 76.92649 | 35207 ft | 435 kts | 115° |
| 2026-04-30 05:17 | 55.63053 | 77.02734 | 35218 ft | 440 kts | 115° |
| 2026-04-30 05:18 | 55.60924 | 77.12937 | 35219 ft | 450 kts | 114° |
| 2026-04-30 05:18 | 55.58731 | 77.23409 | 35279 ft | 458 kts | 114° |
| 2026-04-30 05:19 | 55.56485 | 77.34075 | 35286 ft | 467 kts | 114° |
| 2026-04-30 05:19 | 55.54191 | 77.44930 | 35283 ft | 474 kts | 114° |
| 2026-04-30 05:20 | 55.51863 | 77.55882 | 35266 ft | 478 kts | 114° |
| 2026-04-30 05:20 | 55.49517 | 77.66843 | 35284 ft | 478 kts | 114° |
| 2026-04-30 05:21 | 55.47166 | 77.77784 | 35285 ft | 477 kts | 114° |
| 2026-04-30 05:21 | 55.44813 | 77.88677 | 35275 ft | 475 kts | 114° |
| 2026-04-30 05:22 | 55.42456 | 77.99525 | 35282 ft | 473 kts | 115° |
| 2026-04-30 05:22 | 55.40101 | 78.10297 | 35280 ft | 471 kts | 114° |
| 2026-04-30 05:23 | 55.37749 | 78.21015 | 35281 ft | 470 kts | 114° |
| 2026-04-30 05:23 | 55.35527 | 78.31891 | 34950 ft | 481 kts | 106° |
| 2026-04-30 05:24 | 55.34938 | 78.37629 | 34376 ft | 484 kts | 100° |
| 2026-04-30 05:24 | 55.34486 | 78.43478 | 33750 ft | 482 kts | 99° |
| 2026-04-30 05:24 | 55.34067 | 78.49319 | 33144 ft | 481 kts | 99° |
| 2026-04-30 05:24 | 55.33647 | 78.55146 | 32521 ft | 481 kts | 99° |
| 2026-04-30 05:25 | 55.33212 | 78.60966 | 31904 ft | 480 kts | 99° |
| 2026-04-30 05:25 | 55.32760 | 78.66774 | 31284 ft | 480 kts | 99° |
| 2026-04-30 05:25 | 55.32294 | 78.72565 | 30685 ft | 478 kts | 99° |
| 2026-04-30 05:25 | 55.31821 | 78.78334 | 30060 ft | 476 kts | 99° |
| 2026-04-30 05:26 | 55.31343 | 78.84079 | 29433 ft | 474 kts | 99° |
| 2026-04-30 05:26 | 55.30863 | 78.89784 | 28808 ft | 472 kts | 99° |
| 2026-04-30 05:26 | 55.30384 | 78.95476 | 28186 ft | 470 kts | 99° |
| 2026-04-30 05:26 | 55.29905 | 79.01135 | 27562 ft | 467 kts | 99° |
| 2026-04-30 05:27 | 55.29425 | 79.06767 | 26937 ft | 465 kts | 99° |
| 2026-04-30 05:27 | 55.28946 | 79.12368 | 26313 ft | 463 kts | 100° |
| 2026-04-30 05:27 | 55.28467 | 79.17937 | 25682 ft | 461 kts | 100° |
| 2026-04-30 05:27 | 55.27988 | 79.23476 | 25070 ft | 459 kts | 100° |
| 2026-04-30 05:28 | 55.27507 | 79.29003 | 24445 ft | 456 kts | 100° |
| 2026-04-30 05:28 | 55.27027 | 79.34493 | 23824 ft | 454 kts | 100° |
| 2026-04-30 05:28 | 55.26548 | 79.39954 | 23199 ft | 452 kts | 100° |
| 2026-04-30 05:28 | 55.26070 | 79.45381 | 22579 ft | 450 kts | 100° |
| 2026-04-30 05:29 | 55.25591 | 79.50782 | 21968 ft | 447 kts | 100° |
| 2026-04-30 05:29 | 55.25114 | 79.56130 | 21385 ft | 440 kts | 100° |
| 2026-04-30 05:29 | 55.24644 | 79.61377 | 20802 ft | 430 kts | 100° |
| 2026-04-30 05:29 | 55.24183 | 79.66497 | 20217 ft | 419 kts | 100° |
| 2026-04-30 05:30 | 55.23732 | 79.71480 | 19635 ft | 409 kts | 100° |
| 2026-04-30 05:30 | 55.23290 | 79.76349 | 19059 ft | 400 kts | 100° |
| 2026-04-30 05:30 | 55.22853 | 79.81125 | 18507 ft | 392 kts | 100° |
| 2026-04-30 05:30 | 55.22425 | 79.85784 | 18054 ft | 383 kts | 100° |
| 2026-04-30 05:31 | 55.22007 | 79.90327 | 17621 ft | 373 kts | 100° |
| 2026-04-30 05:31 | 55.21597 | 79.94760 | 17192 ft | 365 kts | 100° |
| 2026-04-30 05:31 | 55.21193 | 79.99099 | 16762 ft | 357 kts | 100° |
| 2026-04-30 05:31 | 55.20796 | 80.03343 | 16338 ft | 350 kts | 100° |
| 2026-04-30 05:32 | 55.20404 | 80.07514 | 15897 ft | 344 kts | 100° |
| 2026-04-30 05:32 | 55.20022 | 80.11570 | 15489 ft | 339 kts | 100° |
| 2026-04-30 05:32 | 55.19640 | 80.15616 | 15056 ft | 334 kts | 100° |
| 2026-04-30 05:32 | 55.19263 | 80.19597 | 14632 ft | 330 kts | 100° |
| 2026-04-30 05:33 | 55.18890 | 80.23520 | 14219 ft | 325 kts | 100° |
| 2026-04-30 05:33 | 55.18521 | 80.27392 | 13787 ft | 321 kts | 100° |
| 2026-04-30 05:33 | 55.18153 | 80.31219 | 13385 ft | 316 kts | 100° |
| 2026-04-30 05:33 | 55.17791 | 80.34976 | 13025 ft | 311 kts | 100° |
| 2026-04-30 05:34 | 55.17435 | 80.38670 | 12665 ft | 306 kts | 100° |
| 2026-04-30 05:34 | 55.17082 | 80.42327 | 12323 ft | 303 kts | 100° |
| 2026-04-30 05:34 | 55.16730 | 80.45945 | 11966 ft | 301 kts | 100° |
| 2026-04-30 05:34 | 55.16380 | 80.49543 | 11622 ft | 299 kts | 100° |
| 2026-04-30 05:35 | 55.16030 | 80.53125 | 11280 ft | 298 kts | 100° |
| 2026-04-30 05:35 | 55.15682 | 80.56696 | 10921 ft | 298 kts | 100° |
| 2026-04-30 05:35 | 55.15332 | 80.60259 | 10581 ft | 297 kts | 100° |
| 2026-04-30 05:35 | 55.14982 | 80.63817 | 10235 ft | 297 kts | 100° |
| 2026-04-30 05:36 | 55.14630 | 80.67362 | 9882 ft | 296 kts | 101° |
| 2026-04-30 05:36 | 55.14279 | 80.70902 | 9541 ft | 295 kts | 101° |
| 2026-04-30 05:36 | 55.13930 | 80.74428 | 9191 ft | 294 kts | 101° |
| 2026-04-30 05:36 | 55.13578 | 80.77939 | 8829 ft | 293 kts | 101° |
| 2026-04-30 05:37 | 55.13229 | 80.81432 | 8487 ft | 291 kts | 101° |
| 2026-04-30 05:37 | 55.12883 | 80.84902 | 8131 ft | 289 kts | 101° |
| 2026-04-30 05:37 | 55.12533 | 80.88382 | 7801 ft | 292 kts | 101° |
| 2026-04-30 05:37 | 55.12178 | 80.91886 | 7457 ft | 294 kts | 101° |
| 2026-04-30 05:38 | 55.11825 | 80.95363 | 7357 ft | 286 kts | 101° |
| 2026-04-30 05:38 | 55.11738 | 80.98787 | 7339 ft | 281 kts | 86° |
| 2026-04-30 05:38 | 55.11970 | 81.02165 | 7339 ft | 280 kts | 84° |
| 2026-04-30 05:38 | 55.12222 | 81.05532 | 7334 ft | 280 kts | 84° |
| 2026-04-30 05:39 | 55.12473 | 81.08906 | 7336 ft | 280 kts | 84° |
| 2026-04-30 05:39 | 55.12715 | 81.12231 | 7333 ft | 280 kts | 84° |
| 2026-04-30 05:39 | 55.12954 | 81.15606 | 7332 ft | 279 kts | 84° |
| 2026-04-30 05:39 | 55.13187 | 81.18974 | 7343 ft | 279 kts | 84° |
| 2026-04-30 05:40 | 55.13412 | 81.22337 | 7335 ft | 279 kts | 85° |
| 2026-04-30 05:40 | 55.13637 | 81.25711 | 7345 ft | 279 kts | 84° |
| 2026-04-30 05:40 | 55.13862 | 81.29085 | 7336 ft | 280 kts | 84° |
| 2026-04-30 05:40 | 55.14084 | 81.32457 | 7341 ft | 280 kts | 85° |
| 2026-04-30 05:41 | 55.14306 | 81.35837 | 7347 ft | 280 kts | 85° |
| 2026-04-30 05:41 | 55.14527 | 81.39230 | 7330 ft | 281 kts | 85° |
| 2026-04-30 05:41 | 55.14743 | 81.42625 | 7337 ft | 282 kts | 85° |
| 2026-04-30 05:41 | 55.14963 | 81.46031 | 7336 ft | 282 kts | 85° |
| 2026-04-30 05:42 | 55.15183 | 81.49434 | 7342 ft | 282 kts | 85° |
| 2026-04-30 05:42 | 55.15400 | 81.52844 | 7337 ft | 282 kts | 85° |
| 2026-04-30 05:42 | 55.15615 | 81.56254 | 7337 ft | 282 kts | 85° |
| 2026-04-30 05:42 | 55.15829 | 81.59654 | 7357 ft | 281 kts | 85° |
| 2026-04-30 05:43 | 55.16042 | 81.63046 | 7340 ft | 280 kts | 85° |
| 2026-04-30 05:43 | 55.16252 | 81.66387 | 7338 ft | 279 kts | 85° |
| 2026-04-30 05:43 | 55.16462 | 81.69763 | 7347 ft | 279 kts | 85° |
| 2026-04-30 05:43 | 55.16671 | 81.73162 | 7356 ft | 282 kts | 85° |
| 2026-04-30 05:44 | 55.16880 | 81.76558 | 7347 ft | 281 kts | 85° |
| 2026-04-30 05:44 | 55.17090 | 81.79952 | 7343 ft | 281 kts | 85° |
| 2026-04-30 05:44 | 55.17298 | 81.83358 | 7349 ft | 281 kts | 85° |
| 2026-04-30 05:44 | 55.17506 | 81.86752 | 7338 ft | 279 kts | 85° |
| 2026-04-30 05:45 | 55.17705 | 81.90091 | 7226 ft | 273 kts | 85° |
| 2026-04-30 05:45 | 55.17900 | 81.93352 | 7121 ft | 266 kts | 85° |
| 2026-04-30 05:45 | 55.18089 | 81.96529 | 7000 ft | 259 kts | 85° |
| 2026-04-30 05:45 | 55.18273 | 81.99615 | 6896 ft | 252 kts | 85° |
| 2026-04-30 05:46 | 55.18452 | 82.02644 | 6778 ft | 247 kts | 85° |
| 2026-04-30 05:46 | 55.18628 | 82.05625 | 6654 ft | 244 kts | 85° |
| 2026-04-30 05:46 | 55.18797 | 82.08537 | 6547 ft | 236 kts | 85° |
| 2026-04-30 05:46 | 55.18962 | 82.11323 | 6441 ft | 225 kts | 85° |
| 2026-04-30 05:47 | 55.19118 | 82.13979 | 6320 ft | 213 kts | 85° |
| 2026-04-30 05:47 | 55.19264 | 82.16512 | 6205 ft | 208 kts | 85° |
| 2026-04-30 05:47 | 55.19419 | 82.19004 | 6088 ft | 210 kts | 84° |
| 2026-04-30 05:47 | 55.19585 | 82.21554 | 5908 ft | 211 kts | 85° |
| 2026-04-30 05:48 | 55.19749 | 82.24104 | 5676 ft | 211 kts | 84° |
| 2026-04-30 05:48 | 55.19914 | 82.26641 | 5406 ft | 208 kts | 84° |
| 2026-04-30 05:48 | 55.20084 | 82.29126 | 5203 ft | 203 kts | 84° |
| 2026-04-30 05:48 | 55.20247 | 82.31562 | 4994 ft | 201 kts | 84° |
| 2026-04-30 05:49 | 55.20410 | 82.33994 | 4785 ft | 201 kts | 84° |
| 2026-04-30 05:49 | 55.20573 | 82.36427 | 4553 ft | 201 kts | 84° |
| 2026-04-30 05:49 | 55.20737 | 82.38851 | 4358 ft | 201 kts | 84° |
| 2026-04-30 05:49 | 55.20913 | 82.41287 | 4159 ft | 202 kts | 85° |
| 2026-04-30 05:50 | 55.21111 | 82.43724 | 3942 ft | 202 kts | 84° |
| 2026-04-30 05:50 | 55.21316 | 82.46127 | 3742 ft | 198 kts | 84° |
| 2026-04-30 05:50 | 55.21520 | 82.48509 | 3514 ft | 197 kts | 84° |
| 2026-04-30 05:50 | 55.21723 | 82.50873 | 3300 ft | 196 kts | 86° |
| 2026-04-30 05:51 | 55.21570 | 82.53167 | 3076 ft | 189 kts | 124° |
| 2026-04-30 05:51 | 55.20584 | 82.54459 | 2858 ft | 178 kts | 168° |
| 2026-04-30 05:51 | 55.19384 | 82.54850 | 2639 ft | 172 kts | 169° |
| 2026-04-30 05:51 | 55.18622 | 82.55125 | 2527 ft | 165 kts | 169° |
| 2026-04-30 05:52 | 55.17550 | 82.55498 | 2308 ft | 151 kts | 169° |
| 2026-04-30 05:52 | 55.16531 | 82.55839 | 2138 ft | 149 kts | 167° |
| 2026-04-30 05:52 | 55.15517 | 82.56222 | 2078 ft | 149 kts | 171° |
| 2026-04-30 05:52 | 55.14483 | 82.56459 | 2033 ft | 148 kts | 173° |
| 2026-04-30 05:53 | 55.13131 | 82.56879 | 1974 ft | 154 kts | 170° |
| 2026-04-30 05:53 | 55.12409 | 82.57073 | 1830 ft | 156 kts | 171° |
| 2026-04-30 05:53 | 55.11365 | 82.57406 | 1614 ft | 149 kts | 168° |
| 2026-04-30 05:53 | 55.10367 | 82.57741 | 1461 ft | 143 kts | 168° |
| 2026-04-30 05:54 | 55.09351 | 82.58072 | 1239 ft | 153 kts | 170° |
| 2026-04-30 05:54 | 55.08343 | 82.58380 | 1063 ft | 145 kts | 168° |
| 2026-04-30 05:54 | 55.07333 | 82.58707 | 885 ft | 149 kts | 170° |
| 2026-04-30 05:54 | 55.06303 | 82.58992 | 695 ft | 151 kts | 168° |
| 2026-04-30 05:55 | 55.05265 | 82.59335 | 478 ft | 153 kts | 170° |
| 2026-04-30 05:55 | 55.04236 | 82.59638 | 370 ft | 142 kts | 169° |
| 2026-04-30 05:55 | 55.03365 | 82.59906 | 373 ft | 110 kts | 168° |
| 2026-04-30 05:55 | 55.02974 | 82.60033 | 374 ft | 27 kts | 169° |
| 2026-04-30 05:56 | 55.02789 | 82.60042 | 374 ft | 26 kts | 192° |
| 2026-04-30 05:56 | 55.02633 | 82.59942 | 374 ft | 12 kts | 212° |
| 2026-04-30 05:56 | 55.02630 | 82.59939 | 374 ft | 0 kts | 214° |
| 2026-04-30 05:56 | 55.02627 | 82.59936 | 374 ft | 4 kts | 214° |
| 2026-04-30 05:57 | 55.02561 | 82.59857 | 374 ft | 16 kts | 214° |
| 2026-04-30 05:57 | 55.02451 | 82.59818 | 375 ft | 17 kts | 174° |
| 2026-04-30 05:57 | 55.02339 | 82.59857 | 375 ft | 16 kts | 167° |
| 2026-04-30 05:57 | 55.02228 | 82.59891 | 375 ft | 18 kts | 170° |
| 2026-04-30 05:58 | 55.02068 | 82.59939 | 375 ft | 27 kts | 170° |
| 2026-04-30 05:58 | 55.01872 | 82.59998 | 376 ft | 29 kts | 170° |
| 2026-04-30 05:58 | 55.01679 | 82.60057 | 376 ft | 27 kts | 170° |
| 2026-04-30 05:58 | 55.01498 | 82.60113 | 376 ft | 26 kts | 170° |
| 2026-04-30 05:59 | 55.01329 | 82.60165 | 376 ft | 24 kts | 170° |
| 2026-04-30 05:59 | 55.01170 | 82.60214 | 376 ft | 23 kts | 170° |
| 2026-04-30 05:59 | 55.01017 | 82.60262 | 375 ft | 22 kts | 168° |
| 2026-04-30 05:59 | 55.00870 | 82.60308 | 375 ft | 21 kts | 163° |
| 2026-04-30 06:00 | 55.00758 | 82.60466 | 375 ft | 21 kts | 128° |
| 2026-04-30 06:00 | 55.00673 | 82.60666 | 374 ft | 20 kts | 119° |
| 2026-04-30 06:00 | 55.00655 | 82.60928 | 374 ft | 26 kts | 82° |
| 2026-04-30 06:00 | 55.00686 | 82.61263 | 374 ft | 30 kts | 82° |
| 2026-04-30 06:01 | 55.00721 | 82.61643 | 373 ft | 33 kts | 81° |
| 2026-04-30 06:01 | 55.00758 | 82.62052 | 373 ft | 35 kts | 81° |
| 2026-04-30 06:01 | 55.00797 | 82.62476 | 373 ft | 36 kts | 81° |
| 2026-04-30 06:01 | 55.00836 | 82.62900 | 373 ft | 34 kts | 82° |
| 2026-04-30 06:02 | 55.00873 | 82.63296 | 373 ft | 32 kts | 82° |
| 2026-04-30 06:02 | 55.00904 | 82.63662 | 373 ft | 29 kts | 79° |
| 2026-04-30 06:02 | 55.00936 | 82.64004 | 373 ft | 28 kts | 81° |
| 2026-04-30 06:02 | 55.00958 | 82.64327 | 372 ft | 26 kts | 95° |
| 2026-04-30 06:03 | 55.00920 | 82.64624 | 372 ft | 24 kts | 102° |
| 2026-04-30 06:03 | 55.00884 | 82.64902 | 372 ft | 23 kts | 102° |
| 2026-04-30 06:03 | 55.00882 | 82.65172 | 372 ft | 22 kts | 83° |
| 2026-04-30 06:03 | 55.00897 | 82.65430 | 372 ft | 21 kts | 80° |
| 2026-04-30 06:04 | 55.00919 | 82.65677 | 372 ft | 20 kts | 80° |
| 2026-04-30 06:04 | 55.00941 | 82.65917 | 372 ft | 20 kts | 82° |
| 2026-04-30 06:04 | 55.00961 | 82.66150 | 372 ft | 19 kts | 81° |
| 2026-04-30 06:05 | 55.01045 | 82.66493 | 372 ft | 15 kts | 69° |
| 2026-04-30 06:05 | 55.01069 | 82.66588 | 371 ft | 6 kts | 67° |
| 2026-04-30 06:05 | 55.01079 | 82.66631 | 371 ft | 0 kts | 67° |